createdAt,value
2019-03-22T00:00:54.267Z,6.38
2019-03-22T00:01:54.082Z,6.31
2019-03-22T00:02:53.978Z,6.41
2019-03-22T00:03:53.871Z,6.42
2019-03-22T00:04:53.769Z,6.49
2019-03-22T00:05:53.665Z,6.52
2019-03-22T00:06:53.563Z,6.59
2019-03-22T00:07:53.459Z,6.56
2019-03-22T00:08:53.351Z,6.56
2019-03-22T00:09:53.251Z,6.57
2019-03-22T00:10:53.141Z,6.59
2019-03-22T00:11:53.042Z,6.54
2019-03-22T00:12:52.934Z,6.56
2019-03-22T00:13:52.831Z,6.63
2019-03-22T00:14:52.720Z,6.56
2019-03-22T00:15:52.620Z,6.59
2019-03-22T00:16:52.513Z,6.59
2019-03-22T00:17:52.410Z,6.59
2019-03-22T00:18:52.305Z,6.64
2019-03-22T00:19:52.233Z,6.54
2019-03-22T00:20:52.098Z,6.62
2019-03-22T00:21:51.992Z,6.66
2019-03-22T00:22:51.891Z,6.81
2019-03-22T00:23:51.779Z,6.85
2019-03-22T00:24:51.680Z,6.84
2019-03-22T00:25:51.571Z,6.88
2019-03-22T00:26:51.473Z,6.85
2019-03-22T00:27:51.362Z,6.89
2019-03-22T00:28:51.261Z,6.92
2019-03-22T00:29:51.157Z,6.85
2019-03-22T00:30:51.053Z,6.89
2019-03-22T00:31:50.958Z,6.84
2019-03-22T00:32:50.844Z,6.93
2019-03-22T00:33:50.738Z,6.97
2019-03-22T00:34:50.635Z,7.03
2019-03-22T00:35:50.531Z,6.99
2019-03-22T00:36:50.428Z,7.05
2019-03-22T00:37:50.328Z,7.00
2019-03-22T00:38:50.249Z,6.97
2019-03-22T00:39:50.190Z,7.05
2019-03-22T00:40:50.011Z,7.05
2019-03-22T00:41:49.914Z,7.10
2019-03-22T00:42:49.802Z,7.13
2019-03-22T00:43:49.697Z,7.15
2019-03-22T00:44:49.592Z,7.15
2019-03-22T00:45:49.492Z,7.31
2019-03-22T00:46:49.384Z,7.25
2019-03-22T00:47:49.280Z,7.25
2019-03-22T00:48:49.176Z,7.35
2019-03-22T00:49:49.074Z,7.33
2019-03-22T00:50:48.970Z,7.31
2019-03-22T00:51:48.866Z,7.48
2019-03-22T00:52:48.761Z,7.54
2019-03-22T00:53:48.661Z,7.56
2019-03-22T00:54:48.554Z,7.63
2019-03-22T00:55:48.452Z,7.63
2019-03-22T00:56:48.343Z,7.61
2019-03-22T00:57:48.246Z,7.76
2019-03-22T00:58:48.165Z,7.75
2019-03-22T00:59:48.034Z,7.77
2019-03-22T01:00:47.932Z,7.85
2019-03-22T01:01:47.828Z,7.85
2019-03-22T01:02:47.723Z,7.85
2019-03-22T01:03:47.620Z,7.88
2019-03-22T01:04:47.516Z,7.83
2019-03-22T01:05:47.413Z,7.88
2019-03-22T01:06:47.309Z,7.91
2019-03-22T01:07:47.206Z,7.93
2019-03-22T01:08:47.099Z,7.95
2019-03-22T01:09:46.998Z,7.98
2019-03-22T01:10:46.894Z,7.94
2019-03-22T01:11:46.790Z,7.93
2019-03-22T01:12:46.687Z,8.05
2019-03-22T01:13:46.584Z,7.97
2019-03-22T01:14:46.481Z,8.00
2019-03-22T01:15:46.377Z,8.09
2019-03-22T01:16:46.282Z,7.95
2019-03-22T01:17:46.200Z,8.00
2019-03-22T01:18:46.139Z,8.03
2019-03-22T01:19:45.964Z,8.03
2019-03-22T01:20:45.860Z,8.06
2019-03-22T01:21:45.759Z,8.03
2019-03-22T01:22:45.655Z,8.06
2019-03-22T01:23:45.850Z,8.12
2019-03-22T01:24:45.446Z,8.12
2019-03-22T01:25:45.342Z,8.16
2019-03-22T01:26:45.240Z,8.05
2019-03-22T01:27:45.137Z,8.16
2019-03-22T01:28:45.036Z,8.26
2019-03-22T01:29:44.935Z,8.42
2019-03-22T01:30:44.887Z,8.26
2019-03-22T01:31:44.724Z,8.30
2019-03-22T01:32:44.622Z,8.37
2019-03-22T01:33:44.521Z,8.34
2019-03-22T01:34:44.414Z,8.41
2019-03-22T01:35:44.313Z,8.36
2019-03-22T01:36:44.209Z,8.37
2019-03-22T01:37:44.175Z,8.34
2019-03-22T01:38:44.002Z,8.49
2019-03-22T01:39:43.900Z,8.49
2019-03-22T01:40:43.797Z,8.55
2019-03-22T01:41:43.695Z,8.56
2019-03-22T01:42:43.590Z,8.51
2019-03-22T01:43:43.487Z,8.52
2019-03-22T01:44:43.385Z,8.61
2019-03-22T01:45:43.282Z,8.60
2019-03-22T01:46:43.179Z,8.64
2019-03-22T01:47:43.072Z,8.60
2019-03-22T01:48:42.977Z,8.71
2019-03-22T01:49:42.870Z,8.71
2019-03-22T01:50:42.765Z,8.84
2019-03-22T01:51:42.665Z,8.76
2019-03-22T01:52:42.560Z,8.85
2019-03-22T01:53:42.458Z,8.85
2019-03-22T01:54:42.356Z,8.92
2019-03-22T01:55:42.253Z,8.91
2019-03-22T01:56:42.173Z,8.87
2019-03-22T01:57:52.346Z,8.92
2019-03-22T01:58:41.943Z,8.85
2019-03-22T01:59:41.840Z,8.92
2019-03-22T02:00:41.739Z,8.99
2019-03-22T02:01:41.638Z,8.89
2019-03-22T02:02:41.531Z,8.91
2019-03-22T02:03:41.429Z,8.91
2019-03-22T02:04:41.327Z,9.06
2019-03-22T02:05:41.226Z,9.08
2019-03-22T02:06:41.119Z,9.06
2019-03-22T02:07:41.017Z,9.04
2019-03-22T02:08:40.916Z,9.11
2019-03-22T02:09:40.810Z,9.10
2019-03-22T02:10:40.710Z,9.14
2019-03-22T02:11:40.605Z,9.08
2019-03-22T02:12:40.506Z,9.08
2019-03-22T02:13:40.403Z,9.02
2019-03-22T02:14:40.299Z,8.99
2019-03-22T02:15:40.196Z,9.00
2019-03-22T02:16:40.136Z,9.04
2019-03-22T02:17:40.068Z,9.14
2019-03-22T02:18:39.887Z,9.10
2019-03-22T02:19:39.785Z,9.11
2019-03-22T02:20:39.686Z,9.06
2019-03-22T02:21:39.583Z,9.10
2019-03-22T02:22:39.477Z,9.19
2019-03-22T02:23:39.376Z,9.19
2019-03-22T02:24:39.272Z,9.19
2019-03-22T02:25:39.170Z,9.19
2019-03-22T02:26:39.066Z,9.22
2019-03-22T02:27:38.965Z,9.26
2019-03-22T02:28:39.167Z,9.26
2019-03-22T02:29:38.760Z,9.31
2019-03-22T02:30:38.657Z,9.26
2019-03-22T02:31:38.555Z,9.31
2019-03-22T02:32:38.451Z,9.22
2019-03-22T02:33:38.350Z,9.26
2019-03-22T02:34:38.245Z,9.34
2019-03-22T02:35:38.144Z,9.29
2019-03-22T02:36:38.101Z,9.34
2019-03-22T02:37:37.940Z,9.31
2019-03-22T02:38:37.834Z,9.31
2019-03-22T02:39:37.841Z,9.34
2019-03-22T02:40:37.638Z,9.36
2019-03-22T02:41:37.535Z,9.37
2019-03-22T02:42:37.426Z,9.39
2019-03-22T02:43:37.328Z,9.44
2019-03-22T02:44:37.224Z,9.48
2019-03-22T02:45:37.124Z,9.40
2019-03-22T02:46:37.017Z,9.47
2019-03-22T02:47:36.924Z,9.41
2019-03-22T02:48:36.813Z,9.47
2019-03-22T02:49:36.709Z,9.46
2019-03-22T02:50:36.608Z,9.47
2019-03-22T02:51:36.506Z,9.47
2019-03-22T02:52:36.411Z,9.46
2019-03-22T02:53:36.303Z,9.46
2019-03-22T02:54:36.196Z,9.51
2019-03-22T02:55:36.097Z,9.61
2019-03-22T02:56:36.019Z,9.62
2019-03-22T02:57:35.892Z,9.55
2019-03-22T02:58:36.087Z,9.55
2019-03-22T02:59:35.687Z,9.59
2019-03-22T03:00:35.584Z,9.62
2019-03-22T03:01:35.481Z,9.56
2019-03-22T03:02:35.378Z,9.62
2019-03-22T03:03:35.275Z,9.66
2019-03-22T03:04:35.175Z,9.59
2019-03-22T03:05:35.075Z,9.66
2019-03-22T03:06:34.970Z,9.72
2019-03-22T03:07:34.869Z,9.68
2019-03-22T03:08:34.767Z,9.61
2019-03-22T03:09:34.668Z,9.62
2019-03-22T03:10:34.559Z,9.68
2019-03-22T03:11:34.459Z,9.61
2019-03-22T03:12:34.363Z,9.59
2019-03-22T03:13:34.256Z,9.44
2019-03-22T03:14:34.155Z,9.51
2019-03-22T03:15:34.106Z,9.48
2019-03-22T03:16:34.009Z,9.61
2019-03-22T03:17:33.848Z,9.51
2019-03-22T03:18:33.744Z,9.66
2019-03-22T03:19:33.649Z,9.64
2019-03-22T03:20:33.539Z,9.64
2019-03-22T03:21:33.440Z,9.58
2019-03-22T03:22:33.335Z,9.62
2019-03-22T03:23:33.234Z,9.59
2019-03-22T03:24:33.131Z,9.72
2019-03-22T03:25:33.030Z,9.69
2019-03-22T03:26:32.928Z,9.64
2019-03-22T03:27:32.823Z,9.74
2019-03-22T03:28:37.317Z,9.72
2019-03-22T03:29:32.621Z,9.74
2019-03-22T03:30:32.517Z,9.66
2019-03-22T03:31:32.418Z,9.68
2019-03-22T03:32:32.345Z,9.68
2019-03-22T03:33:32.231Z,9.68
2019-03-22T03:34:32.110Z,9.64
2019-03-22T03:35:32.039Z,9.74
2019-03-22T03:36:34.836Z,9.64
2019-03-22T03:37:31.822Z,9.69
2019-03-22T03:38:31.700Z,9.66
2019-03-22T03:39:31.603Z,9.73
2019-03-22T03:40:31.497Z,9.69
2019-03-22T03:41:31.394Z,9.80
2019-03-22T03:42:31.293Z,9.77
2019-03-22T03:43:31.189Z,9.83
2019-03-22T03:44:31.088Z,9.79
2019-03-22T03:45:30.987Z,9.91
2019-03-22T03:46:30.882Z,9.92
2019-03-22T03:47:30.786Z,9.95
2019-03-22T03:48:30.981Z,9.94
2019-03-22T03:49:30.578Z,10.12
2019-03-22T03:50:30.476Z,9.99
2019-03-22T03:51:30.370Z,9.94
2019-03-22T03:52:30.268Z,9.94
2019-03-22T03:53:30.168Z,9.98
2019-03-22T03:54:30.066Z,9.87
2019-03-22T03:55:30.016Z,9.92
2019-03-22T03:56:29.959Z,9.87
2019-03-22T03:57:29.764Z,9.86
2019-03-22T03:58:29.956Z,9.92
2019-03-22T03:59:29.559Z,9.79
2019-03-22T04:00:29.452Z,9.86
2019-03-22T04:01:29.361Z,9.74
2019-03-22T04:02:29.250Z,9.79
2019-03-22T04:03:29.148Z,9.79
2019-03-22T04:04:29.048Z,9.64
2019-03-22T04:05:28.949Z,9.80
2019-03-22T04:06:28.840Z,9.80
2019-03-22T04:07:28.741Z,9.68
2019-03-22T04:08:28.643Z,9.68
2019-03-22T04:09:28.541Z,9.76
2019-03-22T04:10:28.432Z,9.77
2019-03-22T04:11:28.333Z,9.83
2019-03-22T04:12:28.232Z,9.80
2019-03-22T04:13:28.129Z,9.76
2019-03-22T04:14:28.027Z,9.80
2019-03-22T04:15:28.007Z,9.79
2019-03-22T04:16:27.823Z,9.82
2019-03-22T04:17:27.721Z,9.82
2019-03-22T04:18:27.622Z,9.80
2019-03-22T04:19:27.515Z,9.77
2019-03-22T04:20:27.416Z,9.79
2019-03-22T04:21:27.333Z,9.79
2019-03-22T04:22:27.210Z,9.80
2019-03-22T04:23:27.143Z,9.82
2019-03-22T04:24:27.006Z,9.69
2019-03-22T04:25:26.904Z,9.69
2019-03-22T04:26:26.805Z,9.74
2019-03-22T04:27:26.699Z,9.66
2019-03-22T04:28:26.904Z,9.69
2019-03-22T04:29:26.493Z,9.66
2019-03-22T04:30:26.408Z,9.65
2019-03-22T04:31:26.292Z,9.74
2019-03-22T04:32:26.189Z,9.68
2019-03-22T04:33:26.089Z,9.72
2019-03-22T04:34:25.992Z,9.72
2019-03-22T04:35:25.960Z,9.76
2019-03-22T04:36:25.781Z,9.83
2019-03-22T04:37:25.680Z,9.79
2019-03-22T04:38:25.576Z,9.73
2019-03-22T04:39:25.476Z,9.76
2019-03-22T04:40:25.374Z,9.74
2019-03-22T04:41:25.271Z,9.80
2019-03-22T04:42:25.168Z,9.84
2019-03-22T04:43:25.069Z,9.80
2019-03-22T04:44:24.964Z,9.91
2019-03-22T04:45:24.862Z,9.79
2019-03-22T04:46:24.760Z,9.91
2019-03-22T04:47:24.657Z,9.91
2019-03-22T04:48:24.559Z,9.87
2019-03-22T04:49:24.454Z,9.94
2019-03-22T04:50:24.353Z,10.02
2019-03-22T04:51:24.252Z,10.05
2019-03-22T04:52:24.149Z,10.07
2019-03-22T04:53:24.046Z,10.05
2019-03-22T04:54:23.948Z,10.04
2019-03-22T04:55:23.886Z,10.10
2019-03-22T04:56:23.740Z,10.20
2019-03-22T04:57:23.642Z,10.22
2019-03-22T04:58:23.538Z,10.22
2019-03-22T04:59:23.433Z,10.22
2019-03-22T05:00:23.343Z,10.28
2019-03-22T05:01:23.233Z,10.23
2019-03-22T05:02:23.130Z,10.33
2019-03-22T05:03:23.027Z,10.31
2019-03-22T05:04:22.933Z,10.30
2019-03-22T05:05:22.831Z,10.28
2019-03-22T05:06:22.719Z,10.28
2019-03-22T05:07:22.619Z,10.37
2019-03-22T05:08:22.518Z,10.28
2019-03-22T05:09:22.415Z,10.26
2019-03-22T05:10:22.311Z,10.40
2019-03-22T05:11:22.211Z,10.31
2019-03-22T05:12:22.110Z,10.25
2019-03-22T05:13:22.006Z,10.30
2019-03-22T05:14:21.926Z,10.38
2019-03-22T05:15:21.846Z,10.22
2019-03-22T05:16:21.702Z,10.25
2019-03-22T05:17:21.599Z,10.26
2019-03-22T05:18:21.497Z,10.28
2019-03-22T05:19:21.396Z,10.28
2019-03-22T05:20:21.299Z,10.33
2019-03-22T05:21:21.190Z,10.44
2019-03-22T05:22:21.090Z,10.41
2019-03-22T05:23:20.988Z,10.37
2019-03-22T05:24:20.887Z,10.37
2019-03-22T05:25:20.853Z,10.26
2019-03-22T05:26:20.684Z,10.41
2019-03-22T05:27:20.580Z,10.41
2019-03-22T05:28:20.480Z,10.34
2019-03-22T05:29:30.235Z,10.34
2019-03-22T05:30:20.276Z,10.28
2019-03-22T05:31:20.173Z,10.26
2019-03-22T05:32:20.073Z,10.25
2019-03-22T05:33:19.976Z,10.37
2019-03-22T05:34:19.884Z,10.31
2019-03-22T05:35:19.830Z,10.42
2019-03-22T05:36:19.667Z,10.41
2019-03-22T05:37:19.564Z,10.40
2019-03-22T05:38:19.466Z,10.40
2019-03-22T05:39:19.363Z,10.35
2019-03-22T05:40:19.259Z,10.46
2019-03-22T05:41:19.160Z,10.40
2019-03-22T05:42:19.057Z,10.38
2019-03-22T05:43:18.953Z,10.28
2019-03-22T05:44:18.853Z,10.25
2019-03-22T05:45:18.753Z,10.26
2019-03-22T05:46:18.650Z,10.25
2019-03-22T05:47:18.552Z,10.33
2019-03-22T05:48:18.450Z,10.34
2019-03-22T05:49:18.344Z,10.28
2019-03-22T05:50:18.241Z,10.28
2019-03-22T05:51:18.141Z,10.33
2019-03-22T05:52:18.039Z,10.42
2019-03-22T05:53:17.939Z,10.44
2019-03-22T05:54:17.885Z,10.42
2019-03-22T05:55:17.800Z,10.38
2019-03-22T05:56:17.630Z,10.41
2019-03-22T05:57:17.531Z,10.46
2019-03-22T05:58:17.428Z,10.44
2019-03-22T05:59:17.328Z,10.44
2019-03-22T06:00:17.227Z,10.42
2019-03-22T06:01:17.128Z,10.57
2019-03-22T06:02:17.022Z,10.54
2019-03-22T06:03:16.919Z,10.69
2019-03-22T06:04:16.822Z,10.60
2019-03-22T06:05:16.718Z,10.68
2019-03-22T06:06:16.617Z,10.59
2019-03-22T06:07:16.514Z,10.64
2019-03-22T06:08:16.413Z,10.64
2019-03-22T06:09:16.315Z,10.72
2019-03-22T06:10:16.210Z,10.74
2019-03-22T06:11:16.110Z,10.78
2019-03-22T06:12:16.007Z,10.74
2019-03-22T06:13:15.906Z,10.79
2019-03-22T06:14:15.838Z,10.75
2019-03-22T06:15:15.755Z,10.82
2019-03-22T06:16:15.602Z,10.71
2019-03-22T06:17:15.501Z,10.71
2019-03-22T06:18:15.397Z,10.61
2019-03-22T06:19:15.297Z,10.69
2019-03-22T06:20:15.196Z,10.71
2019-03-22T06:21:15.094Z,10.60
2019-03-22T06:22:14.991Z,10.61
2019-03-22T06:23:14.890Z,10.59
2019-03-22T06:24:14.789Z,10.57
2019-03-22T06:25:14.693Z,10.57
2019-03-22T06:26:14.589Z,10.57
2019-03-22T06:27:14.488Z,10.56
2019-03-22T06:28:14.386Z,10.61
2019-03-22T06:29:14.284Z,10.60
2019-03-22T06:30:14.178Z,10.56
2019-03-22T06:31:14.080Z,10.74
2019-03-22T06:32:13.981Z,10.75
2019-03-22T06:33:13.882Z,10.79
2019-03-22T06:34:13.834Z,10.89
2019-03-22T06:35:13.749Z,10.87
2019-03-22T06:36:13.573Z,10.86
2019-03-22T06:37:13.471Z,10.84
2019-03-22T06:38:13.370Z,10.84
2019-03-22T06:39:13.267Z,10.76
2019-03-22T06:40:13.169Z,10.78
2019-03-22T06:41:13.066Z,10.79
2019-03-22T06:42:12.964Z,10.78
2019-03-22T06:43:12.862Z,10.75
2019-03-22T06:44:12.764Z,10.84
2019-03-22T06:45:12.660Z,10.72
2019-03-22T06:46:12.559Z,10.87
2019-03-22T06:47:12.458Z,10.97
2019-03-22T06:48:12.355Z,11.02
2019-03-22T06:49:12.258Z,10.93
2019-03-22T06:50:12.156Z,11.00
2019-03-22T06:51:12.053Z,11.00
2019-03-22T06:52:11.951Z,11.00
2019-03-22T06:53:11.850Z,10.94
2019-03-22T06:54:11.792Z,10.99
2019-03-22T06:55:11.682Z,11.00
2019-03-22T06:56:11.548Z,11.00
2019-03-22T06:57:11.446Z,10.94
2019-03-22T06:58:11.343Z,10.92
2019-03-22T06:59:11.243Z,10.87
2019-03-22T07:00:11.143Z,11.00
2019-03-22T07:01:11.040Z,10.99
2019-03-22T07:02:10.936Z,10.90
2019-03-22T07:03:10.837Z,11.00
2019-03-22T07:04:10.735Z,10.94
2019-03-22T07:05:13.364Z,11.00
2019-03-22T07:06:10.532Z,10.97
2019-03-22T07:07:10.435Z,10.96
2019-03-22T07:08:10.330Z,10.99
2019-03-22T07:09:10.229Z,11.00
2019-03-22T07:10:10.128Z,11.15
2019-03-22T07:11:10.024Z,11.05
2019-03-22T07:12:09.924Z,11.18
2019-03-22T07:13:09.831Z,11.12
2019-03-22T07:14:09.773Z,11.12
2019-03-22T07:15:09.694Z,11.11
2019-03-22T07:16:09.518Z,11.18
2019-03-22T07:17:09.418Z,11.29
2019-03-22T07:18:09.323Z,11.35
2019-03-22T07:19:09.228Z,11.37
2019-03-22T07:20:09.116Z,11.55
2019-03-22T07:21:09.020Z,11.47
2019-03-22T07:22:08.913Z,11.48
2019-03-22T07:23:08.818Z,11.50
2019-03-22T07:24:08.712Z,11.54
2019-03-22T07:25:08.614Z,11.48
2019-03-22T07:26:08.513Z,11.51
2019-03-22T07:27:08.406Z,11.59
2019-03-22T07:28:08.307Z,11.54
2019-03-22T07:29:08.207Z,11.57
2019-03-22T07:30:18.118Z,11.55
2019-03-22T07:31:08.006Z,11.51
2019-03-22T07:32:07.905Z,11.54
2019-03-22T07:33:07.807Z,11.52
2019-03-22T07:34:07.751Z,11.45
2019-03-22T07:35:07.683Z,11.47
2019-03-22T07:36:07.501Z,11.55
2019-03-22T07:37:07.398Z,11.47
2019-03-22T07:38:07.300Z,11.51
2019-03-22T07:39:07.196Z,11.48
2019-03-22T07:40:07.095Z,11.48
2019-03-22T07:41:06.994Z,11.45
2019-03-22T07:42:06.894Z,11.51
2019-03-22T07:43:06.792Z,11.54
2019-03-22T07:44:06.691Z,11.52
2019-03-22T07:45:06.593Z,11.57
2019-03-22T07:46:06.491Z,11.54
2019-03-22T07:47:06.389Z,11.57
2019-03-22T07:48:06.288Z,11.63
2019-03-22T07:49:06.187Z,11.51
2019-03-22T07:50:06.085Z,11.55
2019-03-22T07:51:05.991Z,11.68
2019-03-22T07:52:05.884Z,11.55
2019-03-22T07:53:05.783Z,11.47
2019-03-22T07:54:05.720Z,11.55
2019-03-22T07:55:05.663Z,11.41
2019-03-22T07:56:05.480Z,11.51
2019-03-22T07:57:05.380Z,11.54
2019-03-22T07:58:05.278Z,11.47
2019-03-22T07:59:05.177Z,11.54
2019-03-22T08:00:05.077Z,11.55
2019-03-22T08:01:04.976Z,11.51
2019-03-22T08:02:04.874Z,11.63
2019-03-22T08:03:04.773Z,11.72
2019-03-22T08:04:04.671Z,11.88
2019-03-22T08:05:04.572Z,11.86
2019-03-22T08:06:04.471Z,11.87
2019-03-22T08:07:04.396Z,11.88
2019-03-22T08:08:04.325Z,11.84
2019-03-22T08:09:04.169Z,11.78
2019-03-22T08:10:04.069Z,11.83
2019-03-22T08:11:03.974Z,11.91
2019-03-22T08:12:03.868Z,11.88
2019-03-22T08:13:03.765Z,11.95
2019-03-22T08:14:03.694Z,12.04
2019-03-22T08:15:03.630Z,12.04
2019-03-22T08:16:03.463Z,12.13
2019-03-22T08:17:03.364Z,12.06
2019-03-22T08:18:03.268Z,12.00
2019-03-22T08:19:03.162Z,11.97
2019-03-22T08:20:03.060Z,11.84
2019-03-22T08:21:02.969Z,11.81
2019-03-22T08:22:02.890Z,11.70
2019-03-22T08:23:02.760Z,11.73
2019-03-22T08:24:02.658Z,11.77
2019-03-22T08:25:02.576Z,11.72
2019-03-22T08:26:02.458Z,11.75
2019-03-22T08:27:02.377Z,11.83
2019-03-22T08:28:02.311Z,11.81
2019-03-22T08:29:02.200Z,11.91
2019-03-22T08:30:02.055Z,12.00
2019-03-22T08:31:01.954Z,12.02
2019-03-22T08:32:01.862Z,12.18
2019-03-22T08:33:01.754Z,12.15
2019-03-22T08:34:01.688Z,12.28
2019-03-22T08:35:01.628Z,12.32
2019-03-22T08:36:01.451Z,12.35
2019-03-22T08:37:01.365Z,12.54
2019-03-22T08:38:01.265Z,12.49
2019-03-22T08:39:01.150Z,12.60
2019-03-22T08:40:01.050Z,12.61
2019-03-22T08:41:00.969Z,12.68
2019-03-22T08:42:00.849Z,12.62
2019-03-22T08:43:00.749Z,12.67
2019-03-22T08:44:02.711Z,12.70
2019-03-22T08:45:00.581Z,12.70
2019-03-22T08:46:00.446Z,12.75
2019-03-22T08:47:00.349Z,12.75
2019-03-22T08:48:00.250Z,12.75
2019-03-22T08:49:00.194Z,12.73
2019-03-22T08:50:00.061Z,12.72
2019-03-22T08:50:59.959Z,12.70
2019-03-22T08:51:59.862Z,12.73
2019-03-22T08:52:59.747Z,12.76
2019-03-22T08:53:59.647Z,12.80
2019-03-22T08:54:59.604Z,12.80
2019-03-22T08:55:59.446Z,12.94
2019-03-22T08:56:59.352Z,12.95
2019-03-22T08:57:59.248Z,12.95
2019-03-22T08:58:59.149Z,12.97
2019-03-22T08:59:59.049Z,12.98
2019-03-22T09:00:58.961Z,12.95
2019-03-22T09:01:58.846Z,13.00
2019-03-22T09:02:58.749Z,13.05
2019-03-22T09:03:58.679Z,13.01
2019-03-22T09:04:58.563Z,13.00
2019-03-22T09:05:58.449Z,12.90
2019-03-22T09:06:59.086Z,12.78
2019-03-22T09:07:58.261Z,12.75
2019-03-22T09:08:58.152Z,12.72
2019-03-22T09:09:58.052Z,12.42
2019-03-22T09:10:57.964Z,12.58
2019-03-22T09:11:57.849Z,12.55
2019-03-22T09:12:57.749Z,12.57
2019-03-22T09:13:57.652Z,12.53
2019-03-22T09:14:57.625Z,12.50
2019-03-22T09:15:57.561Z,12.53
2019-03-22T09:16:57.356Z,12.50
2019-03-22T09:17:57.251Z,12.43
2019-03-22T09:18:57.172Z,12.36
2019-03-22T09:19:57.064Z,12.54
2019-03-22T09:20:56.954Z,12.50
2019-03-22T09:21:59.458Z,12.64
2019-03-22T09:22:56.756Z,12.64
2019-03-22T09:23:56.695Z,12.75
2019-03-22T09:24:56.554Z,12.78
2019-03-22T09:25:56.475Z,12.73
2019-03-22T09:26:56.354Z,12.82
2019-03-22T09:27:56.267Z,12.85
2019-03-22T09:28:56.155Z,12.94
2019-03-22T09:29:56.057Z,13.03
2019-03-22T09:30:55.993Z,13.09
2019-03-22T09:31:55.855Z,13.00
2019-03-22T09:32:55.821Z,12.98
2019-03-22T09:33:55.697Z,12.98
2019-03-22T09:34:55.630Z,13.15
2019-03-22T09:35:55.543Z,13.20
2019-03-22T09:36:55.358Z,13.25
2019-03-22T09:37:55.259Z,13.25
2019-03-22T09:38:55.161Z,13.44
2019-03-22T09:39:55.087Z,13.28
2019-03-22T09:40:54.959Z,13.38
2019-03-22T09:41:54.858Z,13.44
2019-03-22T09:42:54.762Z,13.46
2019-03-22T09:43:54.718Z,13.46
2019-03-22T09:44:54.566Z,13.54
2019-03-22T09:45:54.471Z,13.63
2019-03-22T09:46:54.389Z,13.70
2019-03-22T09:47:54.266Z,13.72
2019-03-22T09:48:54.175Z,13.71
2019-03-22T09:49:54.066Z,13.81
2019-03-22T09:50:54.020Z,13.72
2019-03-22T09:51:55.233Z,13.74
2019-03-22T09:52:53.830Z,13.67
2019-03-22T09:53:53.719Z,13.67
2019-03-22T09:54:53.573Z,13.57
2019-03-22T09:55:53.521Z,13.65
2019-03-22T09:56:53.373Z,13.46
2019-03-22T09:57:53.274Z,13.47
2019-03-22T09:58:53.202Z,13.52
2019-03-22T09:59:53.108Z,13.62
2019-03-22T10:00:53.016Z,13.71
2019-03-22T10:01:52.880Z,13.70
2019-03-22T10:02:52.779Z,13.62
2019-03-22T10:03:52.682Z,13.57
2019-03-22T10:04:52.608Z,13.54
2019-03-22T10:05:52.483Z,13.49
2019-03-22T10:06:52.420Z,13.47
2019-03-22T10:07:52.315Z,13.44
2019-03-22T10:08:52.211Z,13.54
2019-03-22T10:09:52.131Z,13.49
2019-03-22T10:10:51.992Z,13.42
2019-03-22T10:11:51.890Z,13.62
2019-03-22T10:12:51.793Z,13.72
2019-03-22T10:13:51.708Z,13.74
2019-03-22T10:14:51.593Z,13.74
2019-03-22T10:15:51.579Z,13.79
2019-03-22T10:16:51.478Z,13.74
2019-03-22T10:17:51.330Z,13.86
2019-03-22T10:18:51.239Z,13.74
2019-03-22T10:19:51.115Z,13.78
2019-03-22T10:20:51.003Z,13.85
2019-03-22T10:21:50.950Z,13.83
2019-03-22T10:22:50.802Z,13.86
2019-03-22T10:23:50.704Z,13.79
2019-03-22T10:24:50.632Z,13.87
2019-03-22T10:25:50.545Z,13.87
2019-03-22T10:26:50.407Z,13.89
2019-03-22T10:27:50.334Z,13.97
2019-03-22T10:28:50.278Z,14.08
2019-03-22T10:29:50.121Z,14.12
2019-03-22T10:30:50.027Z,14.20
2019-03-22T10:31:49.917Z,14.26
2019-03-22T10:32:49.820Z,14.15
2019-03-22T10:33:49.794Z,14.15
2019-03-22T10:34:49.658Z,14.25
2019-03-22T10:35:49.566Z,14.17
2019-03-22T10:36:49.474Z,14.25
2019-03-22T10:37:49.323Z,14.26
2019-03-22T10:38:50.406Z,14.20
2019-03-22T10:39:49.127Z,14.26
2019-03-22T10:40:49.028Z,14.25
2019-03-22T10:41:48.932Z,14.18
2019-03-22T10:42:48.847Z,14.25
2019-03-22T10:43:48.734Z,14.20
2019-03-22T10:44:48.662Z,14.05
2019-03-22T10:45:48.605Z,14.12
2019-03-22T10:46:48.443Z,14.04
2019-03-22T10:47:48.339Z,13.90
2019-03-22T10:48:48.241Z,13.81
2019-03-22T10:49:48.238Z,13.86
2019-03-22T10:50:48.063Z,13.71
2019-03-22T10:51:56.832Z,13.68
2019-03-22T10:52:48.375Z,13.71
2019-03-22T10:53:47.802Z,13.77
2019-03-22T10:54:47.758Z,13.72
2019-03-22T10:55:47.551Z,13.71
2019-03-22T10:56:47.518Z,13.67
2019-03-22T10:57:47.437Z,13.70
2019-03-22T10:58:47.256Z,13.75
2019-03-22T10:59:47.157Z,13.77
2019-03-22T11:00:47.059Z,13.74
2019-03-22T11:01:57.724Z,13.77
2019-03-22T11:02:46.873Z,13.81
2019-03-22T11:03:46.830Z,13.81
2019-03-22T11:04:46.664Z,13.97
2019-03-22T11:05:46.566Z,13.90
2019-03-22T11:06:46.473Z,13.99
2019-03-22T11:07:46.369Z,13.83
2019-03-22T11:08:46.269Z,13.78
2019-03-22T11:09:46.174Z,13.75
2019-03-22T11:10:46.075Z,13.87
2019-03-22T11:11:45.975Z,13.86
2019-03-22T11:12:45.878Z,13.79
2019-03-22T11:13:45.779Z,13.87
2019-03-22T11:14:45.827Z,13.87
2019-03-22T11:15:48.815Z,13.95
2019-03-22T11:16:45.482Z,14.03
2019-03-22T11:17:45.416Z,14.04
2019-03-22T11:18:45.286Z,13.97
2019-03-22T11:19:45.191Z,13.81
2019-03-22T11:20:45.734Z,13.75
2019-03-22T11:21:44.990Z,13.65
2019-03-22T11:22:44.891Z,13.70
2019-03-22T11:23:44.799Z,13.72
2019-03-22T11:24:44.695Z,13.68
2019-03-22T11:25:44.595Z,13.89
2019-03-22T11:26:44.498Z,14.00
2019-03-22T11:27:44.400Z,14.10
2019-03-22T11:28:44.301Z,14.20
2019-03-22T11:29:44.205Z,14.29
2019-03-22T11:30:44.105Z,14.23
2019-03-22T11:31:44.009Z,14.40
2019-03-22T11:32:43.909Z,13.99
2019-03-22T11:33:43.807Z,13.74
2019-03-22T11:34:43.710Z,13.70
2019-03-22T11:35:43.617Z,13.46
2019-03-22T11:36:43.520Z,13.57
2019-03-22T11:37:43.441Z,13.65
2019-03-22T11:38:43.386Z,13.71
2019-03-22T11:39:43.216Z,13.83
2019-03-22T11:40:43.122Z,13.83
2019-03-22T11:41:43.024Z,13.97
2019-03-22T11:42:42.922Z,14.26
2019-03-22T11:43:42.825Z,14.44
2019-03-22T11:44:42.724Z,14.58
2019-03-22T11:45:42.629Z,14.81
2019-03-22T11:46:42.529Z,14.86
2019-03-22T11:47:42.432Z,14.79
2019-03-22T11:48:42.336Z,14.79
2019-03-22T11:49:42.236Z,14.70
2019-03-22T11:50:42.138Z,14.60
2019-03-22T11:51:42.039Z,14.43
2019-03-22T11:52:41.944Z,14.59
2019-03-22T11:53:41.844Z,14.60
2019-03-22T11:54:41.745Z,14.33
2019-03-22T11:55:41.648Z,14.20
2019-03-22T11:56:41.550Z,14.10
2019-03-22T11:57:41.451Z,14.15
2019-03-22T11:58:41.415Z,14.32
2019-03-22T11:59:41.259Z,14.29
2019-03-22T12:00:41.159Z,14.37
2019-03-22T12:01:41.060Z,14.47
2019-03-22T12:02:40.965Z,14.40
2019-03-22T12:03:40.866Z,14.18
2019-03-22T12:04:40.767Z,14.18
2019-03-22T12:05:40.815Z,14.30
2019-03-22T12:06:40.573Z,14.33
2019-03-22T12:07:40.472Z,14.47
2019-03-22T12:08:40.375Z,14.54
2019-03-22T12:09:40.275Z,14.55
2019-03-22T12:10:40.181Z,14.58
2019-03-22T12:11:42.049Z,14.79
2019-03-22T12:12:39.984Z,14.91
2019-03-22T12:13:39.884Z,14.99
2019-03-22T12:14:39.788Z,15.03
2019-03-22T12:15:39.691Z,15.15
2019-03-22T12:16:39.597Z,15.25
2019-03-22T12:17:39.496Z,15.37
2019-03-22T12:18:39.398Z,15.46
2019-03-22T12:19:39.336Z,15.44
2019-03-22T12:20:39.205Z,15.40
2019-03-22T12:21:39.105Z,15.27
2019-03-22T12:22:39.010Z,15.27
2019-03-22T12:23:38.948Z,15.40
2019-03-22T12:24:38.815Z,15.46
2019-03-22T12:25:38.719Z,15.47
2019-03-22T12:26:38.620Z,15.21
2019-03-22T12:27:38.522Z,15.21
2019-03-22T12:28:38.427Z,15.29
2019-03-22T12:29:38.328Z,15.19
2019-03-22T12:30:38.233Z,15.18
2019-03-22T12:31:38.135Z,15.11
2019-03-22T12:32:38.039Z,15.27
2019-03-22T12:33:37.939Z,15.36
2019-03-22T12:34:37.840Z,15.29
2019-03-22T12:35:37.743Z,15.39
2019-03-22T12:36:37.649Z,15.19
2019-03-22T12:37:37.550Z,15.31
2019-03-22T12:38:37.451Z,15.19
2019-03-22T12:39:37.377Z,15.14
2019-03-22T12:40:37.301Z,15.21
2019-03-22T12:41:37.159Z,15.15
2019-03-22T12:42:37.065Z,15.17
2019-03-22T12:43:36.971Z,14.94
2019-03-22T12:44:36.872Z,14.86
2019-03-22T12:45:36.774Z,14.70
2019-03-22T12:46:36.675Z,14.54
2019-03-22T12:47:36.579Z,14.60
2019-03-22T12:48:36.482Z,14.40
2019-03-22T12:49:36.386Z,14.25
2019-03-22T12:50:36.288Z,14.43
2019-03-22T12:51:36.193Z,14.37
2019-03-22T12:52:36.094Z,14.43
2019-03-22T12:53:35.995Z,14.45
2019-03-22T12:54:35.901Z,14.50
2019-03-22T12:55:35.801Z,14.45
2019-03-22T12:56:35.707Z,14.62
2019-03-22T12:57:35.606Z,14.85
2019-03-22T12:58:35.509Z,15.02
2019-03-22T12:59:35.410Z,15.07
2019-03-22T13:00:35.344Z,15.24
2019-03-22T13:01:35.276Z,15.37